Bloomfield, New Jersey
Current Conditions -  °F | °C
As of 1:51 PM on Tuesday 21 Oct 2014 (Local Time) from KEWR Reporting Station
Broken Clouds Broken Clouds  
Wind Chill: 65°   Ceiling: 3800
Heat Index: 65°   Visibility: 10mi
Dew Point: 52°   Wind: 9mph
Humidity: 63%   Direction: 130°SE
Pressure: 29.84"   Gusts: NA
Location:  40.79°N, 74.19°W
Report Text: KEWR 211751Z 13008KT 10SM SCT027TCU BKN038 BKN080 BKN250 18/11 A2984 RMK AO2 SLP103 TCU NE T01830111 10189 20122 58018
Loading
Personal Weather Stations






























Interactive Weather Map
Tropical Storm Tracking
New forecast layout! Learn more

10-Day Weather Forecast

Advertisements
Track Severe Weather on mobile